Time;durP1;ratioP1;P1;durP2;ratioP2;P2;SDS_P1;SDS_P2;PMS_P1;PMS_P2;Temp;Humidity;BMP_temperature;BMP_pressure;BME280_temperature;BME280_humidity;BME280_pressure;Samples;Min_cycle;Max_cycle;Signal;HPM_P1;HPM_P2
2022/02/11 00:00:40;;;;;;;1.60;1.40;;;22.20;52.90;;;;;;6205666;23;20371;-82
2022/02/11 00:08:22;;;;;;;3.03;1.70;;;22.20;53.00;;;;;;6179711;23;20427;-83
2022/02/11 00:10:50;;;;;;;3.20;2.10;;;22.20;53.00;;;;;;6180993;23;20391;-83
2022/02/11 00:19:24;;;;;;;1.87;1.50;;;22.20;53.00;;;;;;6206898;23;20365;-82
2022/02/11 00:21:54;;;;;;;2.43;2.23;;;22.20;53.00;;;;;;6205473;23;20403;-83
2022/02/11 00:24:20;;;;;;;1.87;1.30;;;22.20;53.00;;;;;;6180599;23;20426;-83
2022/02/11 00:27:02;;;;;;;2.13;1.60;;;22.20;53.10;;;;;;6180325;23;20469;-83
2022/02/11 00:30:23;;;;;;;1.90;1.70;;;22.20;53.00;;;;;;6179296;23;20379;-82
2022/02/11 00:32:42;;;;;;;2.10;1.60;;;22.20;53.00;;;;;;6200505;23;20475;-84
2022/02/11 00:35:25;;;;;;;3.23;2.00;;;22.20;53.00;;;;;;6204555;23;20371;-83
2022/02/11 00:37:56;;;;;;;2.30;1.70;;;22.20;53.00;;;;;;6210698;23;20382;-82
2022/02/11 01:05:09;;;;;;;3.17;1.83;;;22.10;53.00;;;;;;6238365;23;20440;-82
2022/02/11 01:07:40;;;;;;;2.90;1.53;;;22.10;53.00;;;;;;6237377;23;20367;-83
2022/02/11 01:10:07;;;;;;;1.70;1.47;;;22.10;53.00;;;;;;6236345;23;20397;-84
2022/02/11 01:12:41;;;;;;;3.10;1.43;;;22.10;53.00;;;;;;6234511;23;20382;-84
2022/02/11 01:15:11;;;;;;;1.80;1.40;;;22.20;53.10;;;;;;6235960;23;20376;-84
2022/02/11 01:17:43;;;;;;;1.73;1.50;;;22.10;53.00;;;;;;6233921;23;20383;-83
2022/02/11 01:20:19;;;;;;;2.27;1.60;;;22.20;53.00;;;;;;6235462;23;20454;-83
2022/02/11 01:25:42;;;;;;;2.40;1.80;;;22.20;53.00;;;;;;6232308;23;20953;-83
2022/02/11 01:28:21;;;;;;;1.73;1.60;;;22.10;53.00;;;;;;6230202;23;20383;-84
2022/02/11 01:30:58;;;;;;;3.10;1.37;;;22.10;53.00;;;;;;6229495;23;20530;-84
2022/02/11 01:36:11;;;;;;;1.80;1.50;;;22.10;53.00;;;;;;6232175;23;20385;-84
2022/02/11 02:00:50;;;;;;;4.03;1.83;;;22.10;53.00;;;;;;6145871;23;20448;-83
2022/02/11 02:06:13;;;;;;;2.10;1.73;;;22.10;53.00;;;;;;6152424;23;20831;-83
2022/02/11 02:14:50;;;;;;;1.60;1.30;;;22.10;53.00;;;;;;6061984;23;20399;-84
2022/02/11 02:25:17;;;;;;;2.27;1.57;;;22.10;53.00;;;;;;6145503;23;20432;-84
2022/02/11 02:39:20;;;;;;;2.30;1.50;;;22.10;53.10;;;;;;6060410;23;20456;-83
2022/02/11 02:58:26;;;;;;;2.40;1.50;;;22.00;52.90;;;;;;6139430;23;20365;-82
2022/02/11 03:01:28;;;;;;;4.03;1.70;;;22.00;52.90;;;;;;6139176;23;20381;-82
2022/02/11 03:16:09;;;;;;;2.03;1.27;;;22.00;53.00;;;;;;6193387;23;20413;-82
2022/02/11 03:34:56;;;;;;;1.83;1.33;;;22.00;53.10;;;;;;6231629;23;20385;-82
2022/02/11 04:08:13;;;;;;;1.73;1.40;;;22.00;53.10;;;;;;6236930;23;20357;-82
2022/02/11 04:57:02;;;;;;;1.80;1.30;;;22.00;53.10;;;;;;6231931;23;20425;-83
2022/02/11 04:59:46;;;;;;;1.70;1.20;;;22.00;53.10;;;;;;6234335;23;20393;-83
2022/02/11 05:02:25;;;;;;;1.80;1.23;;;22.00;53.00;;;;;;6237531;23;20389;-82
2022/02/11 05:04:56;;;;;;;1.97;1.40;;;22.00;53.00;;;;;;6236586;23;20420;-82
2022/02/11 05:07:33;;;;;;;1.20;1.10;;;22.00;53.00;;;;;;6237342;23;20378;-82
2022/02/11 05:10:03;;;;;;;1.57;1.23;;;22.00;53.00;;;;;;6258644;23;20378;-83
2022/02/11 05:12:31;;;;;;;1.57;1.20;;;22.00;53.00;;;;;;6234056;23;20428;-82
2022/02/11 05:15:00;;;;;;;1.40;1.00;;;22.00;53.00;;;;;;6229889;23;20477;-83
2022/02/11 05:17:32;;;;;;;1.80;1.37;;;22.00;53.00;;;;;;6233951;23;20374;-82
2022/02/11 05:19:59;;;;;;;1.70;1.50;;;22.00;53.00;;;;;;6231658;23;20393;-82
2022/02/11 05:22:26;;;;;;;1.70;1.40;;;22.00;52.90;;;;;;6230996;23;20393;-81
2022/02/11 05:24:53;;;;;;;1.80;1.10;;;22.00;53.00;;;;;;6233094;23;20502;-83
2022/02/11 05:27:19;;;;;;;1.73;1.37;;;22.00;53.00;;;;;;6230769;23;20380;-83
2022/02/11 05:29:45;;;;;;;1.57;1.30;;;22.00;53.00;;;;;;6230969;23;20387;-83
2022/02/11 05:32:11;;;;;;;1.57;1.30;;;22.00;53.00;;;;;;6232669;23;20381;-83
2022/02/11 05:34:51;;;;;;;2.03;1.23;;;22.00;53.00;;;;;;6238500;23;20449;-82
2022/02/11 05:37:23;;;;;;;2.00;1.17;;;22.00;53.00;;;;;;6240712;23;20363;-82
2022/02/11 05:39:52;;;;;;;1.30;1.20;;;22.00;53.00;;;;;;6237927;23;20386;-82
2022/02/11 05:42:28;;;;;;;1.73;1.40;;;22.00;53.00;;;;;;6236627;23;20473;-82
2022/02/11 05:44:59;;;;;;;1.60;1.10;;;22.00;53.00;;;;;;6234196;23;20484;-82
2022/02/11 05:47:33;;;;;;;1.33;1.07;;;22.00;53.10;;;;;;6234069;23;20385;-83
2022/02/11 05:50:07;;;;;;;1.30;1.07;;;22.00;53.10;;;;;;6234486;23;20443;-83
2022/02/11 05:52:34;;;;;;;2.47;1.33;;;22.00;53.10;;;;;;6206170;23;20378;-83
2022/02/11 05:55:02;;;;;;;1.30;1.10;;;22.00;53.10;;;;;;6231596;23;20378;-84
2022/02/11 06:00:51;;;;;;;2.43;1.40;;;22.00;53.10;;;;;;6233573;23;20345;-83
2022/02/11 06:03:41;;;;;;;1.60;1.30;;;22.00;53.10;;;;;;6231805;23;20383;-84
2022/02/11 06:06:13;;;;;;;1.63;1.30;;;22.00;53.10;;;;;;6231215;23;20445;-84
2022/02/11 06:08:46;;;;;;;1.40;1.10;;;22.00;53.10;;;;;;6231288;23;20366;-85
2022/02/11 06:11:18;;;;;;;2.10;1.23;;;22.00;53.70;;;;;;6230601;23;20433;-84
2022/02/11 06:13:46;;;;;;;3.40;1.57;;;22.00;53.10;;;;;;6230333;23;20382;-83
2022/02/11 06:16:15;;;;;;;2.17;1.40;;;22.00;53.10;;;;;;6230580;23;20378;-84
2022/02/11 06:18:42;;;;;;;1.80;1.40;;;22.00;53.10;;;;;;6207271;23;20382;-84
2022/02/11 06:21:10;;;;;;;1.60;1.40;;;22.00;53.10;;;;;;6231115;23;20378;-84
2022/02/11 06:30:54;;;;;;;1.30;1.00;;;22.00;53.10;;;;;;6236197;23;20419;-83
2022/02/11 06:33:24;;;;;;;1.60;1.20;;;21.90;53.10;;;;;;6231329;23;20417;-82
2022/02/11 06:35:54;;;;;;;1.50;1.40;;;21.90;53.10;;;;;;6229955;23;20378;-83
2022/02/11 06:38:24;;;;;;;2.13;1.20;;;21.90;53.10;;;;;;6230554;23;20406;-83
2022/02/11 06:40:54;;;;;;;1.40;1.30;;;21.90;53.10;;;;;;6229639;23;20844;-83
2022/02/11 06:43:24;;;;;;;2.33;1.50;;;21.90;53.00;;;;;;6205480;23;20466;-83
2022/02/11 06:45:53;;;;;;;1.83;1.40;;;22.00;53.10;;;;;;6208683;23;20390;-83
2022/02/11 06:48:23;;;;;;;1.90;1.20;;;22.00;53.10;;;;;;6206978;23;20382;-83
2022/02/11 06:50:56;;;;;;;2.00;1.13;;;22.00;53.10;;;;;;6235204;23;20397;-83
2022/02/11 06:53:36;;;;;;;1.70;1.40;;;22.00;53.10;;;;;;6209297;23;20422;-83
2022/02/11 06:56:10;;;;;;;1.80;1.50;;;22.00;53.10;;;;;;6184338;23;20465;-83
2022/02/11 06:58:59;;;;;;;1.73;1.30;;;22.00;53.10;;;;;;6210575;23;20370;-82
2022/02/11 07:01:40;;;;;;;1.63;1.20;;;22.00;53.10;;;;;;6207594;23;20413;-83
2022/02/11 07:04:12;;;;;;;1.70;1.30;;;21.90;53.00;;;;;;6205784;23;20475;-83
2022/02/11 07:13:55;;;;;;;;;;;;;;;;;;;;;
2022/02/11 07:16:22;;;;;;;2.03;1.50;;;21.90;53.10;;;;;;6110934;23;20405;-85
2022/02/11 07:18:55;;;;;;;1.80;1.10;;;21.90;53.10;;;;;;6086219;23;20490;-84
2022/02/11 07:28:32;;;;;;;2.00;1.30;;;21.90;53.10;;;;;;6082585;23;20508;-83
2022/02/11 07:31:01;;;;;;;1.93;1.00;;;21.90;53.10;;;;;;6038275;23;20383;-85
2022/02/11 07:33:55;;;;;;;2.47;1.17;;;21.90;53.70;;;;;;6060062;23;20382;-84
2022/02/11 07:36:23;;;;;;;1.47;1.10;;;21.90;53.10;;;;;;6059230;23;20397;-84
2022/02/11 07:39:01;;;;;;;1.67;1.10;;;21.90;53.10;;;;;;6060370;23;20386;-84
2022/02/11 07:49:07;;;;;;;2.00;1.00;;;22.00;53.20;;;;;;6200137;23;20363;-84
2022/02/11 07:51:38;;;;;;;3.00;1.20;;;21.90;53.10;;;;;;6176979;23;20379;-84
2022/02/11 07:54:15;;;;;;;1.30;1.00;;;21.90;53.10;;;;;;6178237;23;20390;-83
2022/02/11 08:03:56;;;;;;;1.30;1.20;;;22.00;53.20;;;;;;6234679;23;20425;-85
2022/02/11 08:13:38;;;;;;;1.50;1.13;;;22.00;53.20;;;;;;6144028;23;20380;-84
2022/02/11 08:29:22;;;;;;;1.30;1.20;;;22.00;53.20;;;;;;6024218;23;20348;-84
2022/02/11 08:31:59;;;;;;;;;;;;;;;;;;;;;
2022/02/11 09:01:54;;;;;;;1.87;1.00;;;21.90;53.20;;;;;;6001244;23;20385;-83
2022/02/11 09:04:42;;;;;;;1.60;1.10;;;21.90;53.20;;;;;;5999290;23;20434;-85
2022/02/11 09:07:22;;;;;;;;;;;;;;;;;;;;;
2022/02/11 09:10:39;;;;;;;1.10;0.93;;;22.00;53.30;;;;;;6031566;23;20375;-85
2022/02/11 09:12:57;;;;;;;1.80;1.20;;;22.00;53.20;;;;;;6046797;23;20380;-85
2022/02/11 09:16:02;;;;;;;1.60;1.07;;;22.00;53.20;;;;;;6031170;23;20389;-85
2022/02/11 09:18:52;;;;;;;1.57;1.00;;;22.00;53.20;;;;;;6030932;23;20391;-84
2022/02/11 09:21:36;;;;;;;1.30;0.90;;;22.00;53.20;;;;;;6020208;23;20381;-84
2022/02/11 09:24:06;;;;;;;1.30;1.00;;;22.00;53.20;;;;;;6116725;23;20985;-84
2022/02/11 09:26:39;;;;;;;1.30;0.93;;;22.00;53.10;;;;;;6117110;23;20462;-84
2022/02/11 09:29:58;;;;;;;;;;;;;;;;;;;;;
2022/02/11 10:08:12;;;;;;;1.40;1.00;;;22.00;53.00;;;;;;6233629;22;20446;-85
2022/02/11 10:11:18;;;;;;;;;;;;;;;;;;;;;
2022/02/11 10:14:19;;;;;;;1.10;0.90;;;22.00;53.00;;;;;;6144105;23;20389;-84
2022/02/11 10:25:26;;;;;;;1.23;0.80;;;22.00;53.10;;;;;;6111114;23;20428;-83
2022/02/11 10:28:12;;;;;;;1.83;1.17;;;22.00;53.10;;;;;;6094000;23;20370;-83
2022/02/11 10:38:19;;;;;;;1.00;0.80;;;22.00;53.20;;;;;;6058468;23;20351;-83
2022/02/11 10:54:37;;;;;;;2.20;0.97;;;22.00;53.20;;;;;;5968043;24;20438;-84
2022/02/11 11:00:50;;;;;;;1.43;1.00;;;22.00;53.20;;;;;;5883075;24;20522;-83
2022/02/11 11:03:31;;;;;;;1.07;0.83;;;22.00;53.20;;;;;;5945919;24;20780;-83
2022/02/11 11:06:04;;;;;;;1.33;0.90;;;22.00;53.20;;;;;;5969894;24;20382;-85
2022/02/11 11:12:10;;;;;;;1.47;1.30;;;22.00;53.20;;;;;;5996056;24;20392;-84
2022/02/11 11:14:49;;;;;;;1.27;0.87;;;22.00;53.10;;;;;;6016980;23;20402;-84
2022/02/11 11:17:40;;;;;;;1.53;0.80;;;22.00;53.10;;;;;;6058793;23;20398;-84
2022/02/11 11:20:42;;;;;;;1.50;1.10;;;22.10;53.20;;;;;;6083874;23;20468;-83
2022/02/11 11:26:55;;;;;;;1.00;0.80;;;22.10;53.10;;;;;;6085966;23;20392;-85
2022/02/11 11:29:32;;;;;;;1.37;1.20;;;22.00;53.10;;;;;;6082537;23;20386;-84
2022/02/11 11:32:31;;;;;;;1.00;0.80;;;22.10;53.20;;;;;;6059312;23;20424;-83
2022/02/11 11:35:47;;;;;;;;;;;;;;;;;;;;;
2022/02/11 11:38:24;;;;;;;1.00;0.80;;;22.10;53.10;;;;;;6173465;23;20368;-84
2022/02/11 11:41:44;;;;;;;1.47;1.10;;;22.00;53.00;;;;;;6169739;23;20386;-84
2022/02/11 11:44:44;;;;;;;1.17;0.93;;;22.10;53.10;;;;;;6031509;23;20494;-83
2022/02/11 11:57:20;;;;;;;1.50;1.27;;;22.00;53.10;;;;;;5968009;24;20397;-84
2022/02/11 12:04:03;;;;;;;2.87;2.23;;;22.10;53.20;;;;;;5832411;24;20386;-85
2022/02/11 12:06:54;;;;;;;4.50;2.40;;;22.00;53.20;;;;;;5833998;24;20387;-84
2022/02/11 12:10:23;;;;;;;;;;;;;;;;;;;;;
2022/02/11 12:29:10;;;;;;;6.20;4.40;;;22.10;53.30;;;;;;5854868;24;20384;-85
2022/02/11 12:35:45;;;;;;;16.97;4.73;;;22.10;53.30;;;;;;5982335;24;20361;-85
2022/02/11 12:45:51;;;;;;;7.80;5.13;;;22.10;53.30;;;;;;5864827;24;20759;-87
2022/02/11 12:52:46;;;;;;;;;;;;;;;;;;;;;
2022/02/11 12:59:10;;;;;;;11.37;4.50;;;22.10;53.50;;;;;;5972796;24;20457;-87
2022/02/11 13:05:49;;;;;;;12.00;5.27;;;22.10;53.40;;;;;;5971213;24;20447;-87
2022/02/11 13:08:46;;;;;;;9.33;4.47;;;22.10;53.50;;;;;;5908649;24;20381;-88
2022/02/11 13:11:41;;;;;;;9.17;5.27;;;22.10;53.50;;;;;;5949733;24;20458;-86
2022/02/11 13:14:37;;;;;;;;;;;;;;;;;;;;;
2022/02/11 13:27:51;;;;;;;;;;;;;;;;;;;;;
2022/02/11 13:37:29;;;;;;;6.90;3.70;;;22.10;53.50;;;;;;6145004;23;20364;-86
2022/02/11 13:40:08;;;;;;;8.27;3.50;;;22.10;53.50;;;;;;6121289;23;20389;-86
2022/02/11 13:43:36;;;;;;;7.73;4.60;;;22.10;53.50;;;;;;6120199;23;20472;-85
2022/02/11 13:50:12;;;;;;;7.00;4.10;;;22.10;53.50;;;;;;6057128;23;20391;-86
2022/02/11 13:56:36;;;;;;;6.53;3.43;;;22.10;53.50;;;;;;6057371;23;20354;-86
2022/02/11 14:06:06;;;;;;;6.17;3.30;;;22.20;53.70;;;;;;5914390;24;20466;-84
2022/02/11 14:11:57;;;;;;;4.37;2.80;;;22.20;53.70;;;;;;5941259;23;20362;-85
2022/02/11 14:14:36;;;;;;;6.23;3.30;;;22.20;53.80;;;;;;5940745;24;20391;-83
2022/02/11 14:17:33;;;;;;;5.60;3.10;;;22.20;53.80;;;;;;5882187;24;20891;-83
2022/02/11 14:20:16;;;;;;;6.27;3.30;;;22.20;53.70;;;;;;5949690;23;20376;-83
2022/02/11 14:22:53;;;;;;;4.83;2.70;;;22.30;53.80;;;;;;6000486;23;20392;-83
2022/02/11 14:32:34;;;;;;;6.13;3.40;;;22.30;53.80;;;;;;5940271;23;20456;-86
2022/02/11 14:35:21;;;;;;;4.63;2.90;;;22.30;53.80;;;;;;5917450;24;20460;-85
2022/02/11 14:38:17;;;;;;;8.30;3.37;;;22.30;53.80;;;;;;5924012;23;20468;-85
2022/02/11 14:47:13;;;;;;;6.50;3.17;;;22.40;53.90;;;;;;6001468;23;20414;-84
2022/02/11 14:49:42;;;;;;;6.60;2.97;;;22.40;53.80;;;;;;5975832;24;20382;-86
2022/02/11 14:52:16;;;;;;;4.30;2.47;;;22.40;53.90;;;;;;5971412;24;20381;-84
2022/02/11 14:54:42;;;;;;;5.97;3.17;;;22.40;53.80;;;;;;5974974;24;20480;-84
2022/02/11 14:57:30;;;;;;;6.53;3.57;;;22.40;53.80;;;;;;5974864;24;20385;-84
2022/02/11 14:59:57;;;;;;;7.63;3.70;;;22.40;53.80;;;;;;5975392;24;20471;-83
2022/02/11 15:03:20;;;;;;;5.43;2.50;;;22.40;53.90;;;;;;5973928;24;20483;-84
2022/02/11 15:05:38;;;;;;;4.93;2.50;;;22.40;53.80;;;;;;6049826;23;20438;-82
2022/02/11 15:08:12;;;;;;;3.43;2.43;;;22.40;53.80;;;;;;6082413;23;20458;-84
2022/02/11 15:10:42;;;;;;;4.60;2.57;;;22.40;53.70;;;;;;6083022;23;20387;-83
2022/02/11 15:27:33;;;;;;;;;;;;;;;;;;;;;
2022/02/11 15:30:02;;;;;;;3.97;2.57;;;22.50;53.90;;;;;;6141980;23;20376;-83
2022/02/11 15:32:55;;;;;;;4.90;2.70;;;22.50;53.90;;;;;;6117719;23;20389;-85
2022/02/11 15:35:49;;;;;;;;;;;;;;;;;;;;;
2022/02/11 15:38:23;;;;;;;5.10;2.67;;;22.50;53.90;;;;;;6084562;23;20375;-84
2022/02/11 15:41:23;;;;;;;4.40;2.40;;;22.50;53.90;;;;;;6117655;23;20405;-84
2022/02/11 15:44:02;;;;;;;5.80;3.23;;;22.60;53.90;;;;;;6059804;23;20430;-84
2022/02/11 15:46:38;;;;;;;5.40;2.87;;;22.60;53.90;;;;;;6060268;23;20382;-84
2022/02/11 15:52:22;;;;;;;4.80;2.43;;;22.60;53.80;;;;;;6078627;23;20388;-84
2022/02/11 16:02:00;;;;;;;6.07;3.00;;;22.60;53.80;;;;;;6054737;23;20405;-83
2022/02/11 16:05:01;;;;;;;;;;;;;;;;;;;;;
2022/02/11 16:12:00;;;;;;;;;;;;;;;;;;;;;
2022/02/11 16:21:08;;;;;;;4.60;2.10;;;22.60;53.80;;;;;;6000826;23;20376;-83
2022/02/11 16:23:44;;;;;;;2.43;2.20;;;22.60;53.80;;;;;;6005022;23;20385;-83
2022/02/11 16:26:15;;;;;;;4.20;2.27;;;22.60;53.80;;;;;;6004809;23;20392;-82
2022/02/11 16:28:51;;;;;;;4.37;2.37;;;22.60;53.70;;;;;;6004185;23;20413;-82
2022/02/11 16:31:43;;;;;;;3.97;2.13;;;22.60;53.70;;;;;;6003568;23;20452;-82
2022/02/11 16:34:26;;;;;;;2.93;1.90;;;22.60;53.70;;;;;;6027685;23;20388;-83
2022/02/11 16:37:16;;;;;;;4.83;2.20;;;22.60;53.60;;;;;;6004857;23;20414;-83
2022/02/11 16:40:35;;;;;;;3.77;2.47;;;22.60;53.60;;;;;;6002967;23;20467;-82
2022/02/11 16:43:28;;;;;;;2.87;1.83;;;22.60;53.60;;;;;;5971024;24;20475;-82
2022/02/11 16:46:04;;;;;;;3.27;2.43;;;22.60;53.60;;;;;;5922729;24;20379;-82
2022/02/11 16:48:36;;;;;;;3.20;2.50;;;22.60;53.60;;;;;;6041171;23;20422;-85
2022/02/11 16:51:03;;;;;;;3.30;2.00;;;22.60;53.60;;;;;;6080940;23;20377;-84
2022/02/11 16:53:31;;;;;;;3.07;2.17;;;22.50;53.60;;;;;;6084507;23;20375;-83
2022/02/11 16:59:22;;;;;;;4.33;2.10;;;22.60;53.60;;;;;;6084603;23;20354;-83
2022/02/11 17:02:04;;;;;;;4.20;2.10;;;22.50;53.60;;;;;;6057555;23;20382;-84
2022/02/11 17:04:32;;;;;;;3.20;2.30;;;22.50;53.60;;;;;;6081189;23;20430;-84
2022/02/11 17:07:04;;;;;;;3.70;2.30;;;22.50;53.60;;;;;;6081968;23;20410;-84
2022/02/11 17:09:33;;;;;;;3.47;2.70;;;22.50;53.60;;;;;;6082990;23;20690;-84
2022/02/11 17:12:02;;;;;;;2.60;1.90;;;22.50;53.60;;;;;;6082742;23;20397;-84
2022/02/11 17:14:28;;;;;;;3.93;2.20;;;22.50;53.50;;;;;;6083003;23;20379;-83
2022/02/11 17:20:13;;;;;;;4.23;2.20;;;22.50;53.50;;;;;;6209093;23;20377;-82
2022/02/11 17:22:45;;;;;;;2.67;2.20;;;22.50;53.50;;;;;;6232773;23;20381;-83
2022/02/11 17:25:12;;;;;;;3.27;2.17;;;22.50;53.60;;;;;;6233073;23;20777;-83
2022/02/11 17:27:41;;;;;;;2.80;2.30;;;22.50;53.60;;;;;;6233725;23;20378;-83
2022/02/11 17:30:14;;;;;;;2.90;1.70;;;22.50;53.60;;;;;;6234856;23;20370;-83
2022/02/11 17:32:49;;;;;;;5.80;2.50;;;22.50;53.50;;;;;;6233108;23;20382;-83
2022/02/11 17:35:25;;;;;;;3.00;2.20;;;22.50;53.60;;;;;;6230479;23;20432;-84
2022/02/11 17:37:57;;;;;;;2.80;1.90;;;22.50;53.50;;;;;;6231451;23;20831;-84
2022/02/11 17:40:29;;;;;;;2.70;1.73;;;22.50;53.50;;;;;;6229229;23;20386;-84
2022/02/11 17:42:59;;;;;;;2.30;2.10;;;22.50;53.50;;;;;;6229111;23;20367;-84
2022/02/11 17:45:35;;;;;;;2.10;1.70;;;22.50;53.50;;;;;;6231235;23;20402;-84
2022/02/11 17:48:00;;;;;;;2.83;1.93;;;22.50;53.50;;;;;;6229522;23;20468;-84
2022/02/11 17:50:49;;;;;;;4.50;2.13;;;22.40;53.40;;;;;;6228418;23;20375;-84
2022/02/11 17:53:18;;;;;;;2.40;2.10;;;22.50;53.50;;;;;;6228240;23;20494;-84
2022/02/11 17:55:44;;;;;;;2.03;1.53;;;22.40;53.90;;;;;;6229964;23;20394;-84
2022/02/11 17:58:11;;;;;;;2.47;1.40;;;22.40;53.30;;;;;;6230480;23;20374;-84
2022/02/11 18:00:38;;;;;;;2.40;1.73;;;22.40;53.30;;;;;;6229309;23;20841;-84
2022/02/11 18:03:10;;;;;;;3.30;2.13;;;22.40;53.30;;;;;;6228840;23;20389;-84
2022/02/11 18:05:47;;;;;;;;;;;;;;;;;;;;;
2022/02/11 18:08:14;;;;;;;2.27;1.70;;;22.40;53.30;;;;;;6236985;23;20385;-82
2022/02/11 18:10:43;;;;;;;2.00;1.70;;;22.40;53.30;;;;;;6235912;23;20520;-83
2022/02/11 18:13:22;;;;;;;2.73;1.40;;;22.40;53.30;;;;;;6236823;23;20370;-83
2022/02/11 18:15:51;;;;;;;2.43;1.50;;;22.40;53.30;;;;;;6237090;23;20402;-82
2022/02/11 18:18:21;;;;;;;3.60;1.63;;;22.40;53.30;;;;;;6234508;23;20393;-82
2022/02/11 18:20:54;;;;;;;2.53;1.67;;;22.40;53.30;;;;;;6230779;23;20371;-82
2022/02/11 18:23:34;;;;;;;3.00;1.93;;;22.40;53.30;;;;;;6229899;23;20378;-84
2022/02/11 18:26:05;;;;;;;1.87;1.63;;;22.40;53.30;;;;;;6230990;23;20813;-83
2022/02/11 18:28:41;;;;;;;2.13;1.70;;;22.40;53.30;;;;;;6231809;23;20379;-81
2022/02/11 18:31:10;;;;;;;2.83;1.77;;;22.40;53.30;;;;;;6232511;23;20361;-81
2022/02/11 18:34:04;;;;;;;1.87;1.57;;;22.40;53.40;;;;;;6231346;23;20769;-81
2022/02/11 18:36:35;;;;;;;2.43;1.70;;;22.40;53.40;;;;;;6213108;23;20427;-82
2022/02/11 18:41:56;;;;;;;2.17;1.60;;;22.30;53.30;;;;;;6232813;23;20405;-81
2022/02/11 18:44:23;;;;;;;2.03;1.30;;;22.30;53.30;;;;;;6230875;23;20489;-82
2022/02/11 18:50:40;;;;;;;2.50;1.40;;;22.30;53.30;;;;;;6231787;23;20361;-81
2022/02/11 18:53:20;;;;;;;2.63;1.70;;;22.30;53.40;;;;;;6226824;23;20421;-81
2022/02/11 18:56:00;;;;;;;2.53;1.97;;;22.30;53.40;;;;;;6229828;23;20382;-84
2022/02/11 19:01:42;;;;;;;2.33;1.87;;;22.30;53.40;;;;;;6228993;23;20397;-84
2022/02/11 19:04:18;;;;;;;;;;;;;;;;;;;;;
2022/02/11 19:06:57;;;;;;;;;;;;;;;;;;;;;
2022/02/11 19:09:23;;;;;;;2.20;1.60;;;22.30;53.40;;;;;;6230212;23;20389;-84
2022/02/11 19:11:55;;;;;;;1.80;1.40;;;22.30;53.40;;;;;;6227587;23;20439;-84
2022/02/11 19:14:43;;;;;;;2.33;1.60;;;22.30;53.30;;;;;;6228089;23;20383;-84
2022/02/11 19:17:11;;;;;;;3.87;1.30;;;22.30;53.30;;;;;;6202703;23;20394;-84
2022/02/11 19:19:43;;;;;;;2.10;1.80;;;22.30;53.30;;;;;;6228238;23;20386;-84
2022/02/11 19:22:15;;;;;;;2.17;1.60;;;22.30;53.30;;;;;;6228931;23;20383;-84
2022/02/11 19:24:51;;;;;;;1.40;1.30;;;22.30;53.30;;;;;;6228745;23;20457;-84
2022/02/11 19:27:33;;;;;;;1.90;1.70;;;22.30;53.30;;;;;;6228521;23;20432;-84
2022/02/11 19:33:21;;;;;;;2.43;1.50;;;22.30;53.30;;;;;;6197067;23;20450;-84
2022/02/11 19:38:45;;;;;;;4.07;1.57;;;22.20;53.20;;;;;;6197556;23;20416;-83
2022/02/11 19:41:16;;;;;;;2.30;1.63;;;22.20;53.20;;;;;;6172531;23;20375;-85
2022/02/11 19:43:52;;;;;;;;;;;;;;;;;;;;;
2022/02/11 19:46:22;;;;;;;2.43;1.57;;;22.20;53.30;;;;;;6199450;23;20406;-83
2022/02/11 19:49:26;;;;;;;1.83;1.13;;;22.20;53.20;;;;;;6174350;23;20839;-83
2022/02/11 19:51:55;;;;;;;3.00;1.50;;;22.20;53.20;;;;;;6199284;23;20371;-84
2022/02/11 19:54:24;;;;;;;1.47;1.30;;;22.20;53.30;;;;;;6194546;23;20378;-84
2022/02/11 19:56:53;;;;;;;2.57;1.83;;;22.20;53.30;;;;;;6230855;23;20424;-83
2022/02/11 19:59:26;;;;;;;3.07;1.80;;;22.20;53.30;;;;;;6230977;23;20377;-83
2022/02/11 20:02:08;;;;;;;3.07;1.40;;;22.20;53.30;;;;;;6230289;23;20446;-84
2022/02/11 20:04:43;;;;;;;1.90;1.47;;;22.20;53.30;;;;;;6229369;23;20406;-84
2022/02/11 20:07:33;;;;;;;2.00;1.30;;;22.30;53.30;;;;;;6229464;23;20750;-82
2022/02/11 20:09:59;;;;;;;1.70;1.30;;;22.30;53.30;;;;;;6231411;23;20409;-82
2022/02/11 20:12:28;;;;;;;1.40;1.27;;;22.20;53.30;;;;;;6230509;23;20766;-82
2022/02/11 20:14:56;;;;;;;1.63;1.20;;;22.20;53.30;;;;;;6232650;23;20378;-82
2022/02/11 20:17:24;;;;;;;1.80;1.20;;;22.20;53.30;;;;;;6232924;23;20385;-82
2022/02/11 20:27:00;;;;;;;2.10;1.30;;;22.20;53.30;;;;;;6202444;23;20346;-82
2022/02/11 20:29:58;;;;;;;1.83;1.40;;;22.20;53.30;;;;;;6177839;23;20905;-83
2022/02/11 20:32:24;;;;;;;1.63;1.10;;;22.20;53.30;;;;;;6175755;23;20383;-82
2022/02/11 20:35:06;;;;;;;2.00;1.50;;;22.20;53.30;;;;;;6176150;23;20408;-82
2022/02/11 20:37:33;;;;;;;2.47;1.67;;;22.20;53.30;;;;;;6176604;23;20403;-83
2022/02/11 20:40:13;;;;;;;1.73;1.30;;;22.20;53.30;;;;;;6201937;23;20435;-83
2022/02/11 20:43:04;;;;;;;2.00;1.20;;;22.20;53.30;;;;;;6201280;23;20802;-83
2022/02/11 20:45:31;;;;;;;1.93;1.20;;;22.20;53.30;;;;;;6177496;23;20509;-83
2022/02/11 20:48:00;;;;;;;1.30;1.20;;;22.20;53.30;;;;;;6176540;23;20445;-82
2022/02/11 20:50:40;;;;;;;1.80;1.20;;;22.20;53.30;;;;;;6177571;23;20380;-83
2022/02/11 20:53:14;;;;;;;2.20;1.50;;;22.20;53.30;;;;;;6182030;23;20385;-83
2022/02/11 20:55:46;;;;;;;1.20;1.00;;;22.20;53.30;;;;;;6233465;23;20389;-82
2022/02/11 20:58:19;;;;;;;2.83;1.40;;;22.20;53.30;;;;;;6232569;23;20472;-83
2022/02/11 21:00:54;;;;;;;1.80;1.13;;;22.20;53.20;;;;;;6233155;23;20389;-83
2022/02/11 21:03:23;;;;;;;1.60;1.20;;;22.20;53.20;;;;;;6235513;23;20374;-83
2022/02/11 21:05:56;;;;;;;1.30;1.10;;;22.20;53.20;;;;;;6206689;23;20425;-83
2022/02/11 21:08:25;;;;;;;3.00;2.60;;;22.20;53.80;;;;;;6232402;23;20378;-82
2022/02/11 21:10:51;;;;;;;1.50;1.40;;;22.20;53.80;;;;;;6233094;23;20382;-83
2022/02/11 21:13:17;;;;;;;2.00;1.20;;;22.20;53.20;;;;;;6231928;23;20410;-83
2022/02/11 21:15:53;;;;;;;1.60;1.27;;;22.20;53.20;;;;;;6233977;23;20433;-83
2022/02/11 21:18:28;;;;;;;1.60;1.30;;;22.20;53.20;;;;;;6235575;23;20382;-83
2022/02/11 21:20:54;;;;;;;2.30;1.40;;;22.20;53.20;;;;;;6233728;23;20432;-83
2022/02/11 21:23:20;;;;;;;2.23;1.20;;;22.20;53.20;;;;;;6234741;23;20398;-81
2022/02/11 21:25:48;;;;;;;1.63;1.30;;;22.20;53.20;;;;;;6234183;23;20428;-82
2022/02/11 21:28:15;;;;;;;1.97;1.23;;;22.20;53.20;;;;;;6235418;23;20350;-82
2022/02/11 21:37:06;;;;;;;2.37;1.70;;;22.20;53.20;;;;;;6234085;23;20346;-81
2022/02/11 21:39:47;;;;;;;2.27;1.23;;;22.20;53.30;;;;;;6233518;23;20386;-82
2022/02/11 21:42:13;;;;;;;2.00;1.33;;;22.20;53.30;;;;;;6234032;23;20354;-81
2022/02/11 21:44:46;;;;;;;1.90;1.43;;;22.20;53.30;;;;;;6233043;23;20426;-81
2022/02/11 21:47:17;;;;;;;2.20;1.37;;;22.20;53.30;;;;;;6233165;23;20374;-81
2022/02/11 21:53:21;;;;;;;1.60;1.30;;;22.20;53.30;;;;;;6235260;23;20426;-81
2022/02/11 21:56:14;;;;;;;1.20;1.00;;;22.20;53.30;;;;;;6227831;23;20853;-81
2022/02/11 21:59:22;;;;;;;1.57;1.13;;;22.20;53.30;;;;;;6177259;23;20390;-82
2022/02/11 22:02:45;;;;;;;;;;;;;;;;;;;;;
2022/02/11 22:08:49;;;;;;;2.70;1.43;;;22.20;53.30;;;;;;6146805;23;21003;-82
2022/02/11 22:11:25;;;;;;;1.70;1.43;;;22.10;53.20;;;;;;6120045;23;20385;-82
2022/02/11 22:14:03;;;;;;;1.63;1.50;;;22.10;53.20;;;;;;6098599;23;20468;-82
2022/02/11 22:16:42;;;;;;;1.73;1.33;;;22.10;53.30;;;;;;6098996;23;20423;-81
2022/02/11 22:19:17;;;;;;;2.93;1.30;;;22.20;53.30;;;;;;6125294;23;20384;-83
2022/02/11 22:21:52;;;;;;;2.10;1.20;;;22.20;53.30;;;;;;6122301;23;20384;-82
2022/02/11 22:24:24;;;;;;;1.60;1.27;;;22.20;53.30;;;;;;6122728;23;20420;-82
2022/02/11 22:26:53;;;;;;;1.77;1.40;;;22.20;53.30;;;;;;6122946;23;20384;-82
2022/02/11 22:29:28;;;;;;;1.50;1.20;;;22.20;53.30;;;;;;6146972;23;20369;-82
2022/02/11 22:32:33;;;;;;;1.67;1.20;;;22.20;53.20;;;;;;6122063;23;20480;-81
2022/02/11 22:35:12;;;;;;;1.10;0.90;;;22.20;53.20;;;;;;6128898;23;20385;-82
2022/02/11 22:38:07;;;;;;;2.00;1.20;;;22.20;53.20;;;;;;6239152;23;20394;-82
2022/02/11 22:40:59;;;;;;;1.40;0.87;;;22.20;53.20;;;;;;6237856;23;20378;-82
2022/02/11 22:43:45;;;;;;;;;;;;;;;;;;;;;
2022/02/11 22:46:16;;;;;;;1.80;1.27;;;22.10;53.20;;;;;;6177174;23;20441;-82
2022/02/11 22:54:54;;;;;;;1.60;1.20;;;22.10;53.20;;;;;;6176435;23;20363;-82
2022/02/11 22:57:30;;;;;;;1.13;1.03;;;22.10;53.20;;;;;;6151076;23;20427;-82
2022/02/11 23:00:14;;;;;;;1.50;1.13;;;22.10;53.20;;;;;;6175442;23;20379;-82
2022/02/11 23:02:52;;;;;;;1.60;1.10;;;22.10;53.20;;;;;;6149200;23;20485;-83
2022/02/11 23:06:02;;;;;;;2.13;1.20;;;22.10;53.30;;;;;;6152119;23;20427;-82
2022/02/11 23:11:39;;;;;;;1.57;1.03;;;22.10;53.20;;;;;;6171262;23;20472;-82
2022/02/11 23:14:16;;;;;;;1.63;0.90;;;22.10;53.20;;;;;;6145388;23;20431;-83
2022/02/11 23:16:49;;;;;;;2.00;1.37;;;22.10;53.20;;;;;;6166107;23;20843;-83
2022/02/11 23:19:22;;;;;;;1.50;1.10;;;22.10;53.20;;;;;;6167726;23;20383;-83
2022/02/11 23:21:57;;;;;;;1.40;1.07;;;22.10;53.20;;;;;;6142689;23;20391;-83
2022/02/11 23:24:33;;;;;;;1.80;1.40;;;22.10;53.20;;;;;;6141337;23;20519;-83
2022/02/11 23:27:09;;;;;;;1.70;1.30;;;22.10;53.20;;;;;;6160789;23;20380;-84
2022/02/11 23:29:40;;;;;;;1.60;1.20;;;22.10;53.10;;;;;;6142081;23;20376;-84